sensor_id;sensor_type;location;lat;lon;timestamp;temperature;humidity
41838;DHT22;27511;52.042;5.178;2023-05-08T00:01:25;17.60;99.90
41838;DHT22;27511;52.042;5.178;2023-05-08T00:03:51;17.60;99.90
41838;DHT22;27511;52.042;5.178;2023-05-08T00:06:16;17.50;99.90
41838;DHT22;27511;52.042;5.178;2023-05-08T00:08:42;17.50;99.90
41838;DHT22;27511;52.042;5.178;2023-05-08T00:11:07;17.50;99.90
41838;DHT22;27511;52.042;5.178;2023-05-08T00:13:33;17.40;99.90
41838;DHT22;27511;52.042;5.178;2023-05-08T00:15:58;17.40;99.90
41838;DHT22;27511;52.042;5.178;2023-05-08T00:18:24;17.40;99.90
41838;DHT22;27511;52.042;5.178;2023-05-08T00:20:49;17.50;99.90
41838;DHT22;27511;52.042;5.178;2023-05-08T00:23:15;17.50;99.90
41838;DHT22;27511;52.042;5.178;2023-05-08T00:25:41;17.40;99.90
41838;DHT22;27511;52.042;5.178;2023-05-08T00:28:06;17.40;99.90
41838;DHT22;27511;52.042;5.178;2023-05-08T00:30:31;17.30;99.90
41838;DHT22;27511;52.042;5.178;2023-05-08T00:32:57;17.40;99.90
41838;DHT22;27511;52.042;5.178;2023-05-08T00:35:22;17.50;99.90
41838;DHT22;27511;52.042;5.178;2023-05-08T00:37:48;17.30;99.90
41838;DHT22;27511;52.042;5.178;2023-05-08T00:40:13;17.30;99.90
41838;DHT22;27511;52.042;5.178;2023-05-08T00:42:39;17.20;99.90
41838;DHT22;27511;52.042;5.178;2023-05-08T00:45:04;17.30;99.90
41838;DHT22;27511;52.042;5.178;2023-05-08T00:47:30;17.20;99.90
41838;DHT22;27511;52.042;5.178;2023-05-08T00:49:57;17.20;99.90
41838;DHT22;27511;52.042;5.178;2023-05-08T00:52:23;17.10;99.90
41838;DHT22;27511;52.042;5.178;2023-05-08T00:54:49;17.20;99.90
41838;DHT22;27511;52.042;5.178;2023-05-08T00:57:15;17.20;99.90
41838;DHT22;27511;52.042;5.178;2023-05-08T00:59:41;17.30;99.90
41838;DHT22;27511;52.042;5.178;2023-05-08T01:02:07;17.20;99.90
41838;DHT22;27511;52.042;5.178;2023-05-08T01:04:34;17.10;99.90
41838;DHT22;27511;52.042;5.178;2023-05-08T01:07:01;17.10;99.90
41838;DHT22;27511;52.042;5.178;2023-05-08T01:09:26;17.10;99.90
41838;DHT22;27511;52.042;5.178;2023-05-08T01:11:55;17.10;99.90
41838;DHT22;27511;52.042;5.178;2023-05-08T01:17:09;17.20;99.90
41838;DHT22;27511;52.042;5.178;2023-05-08T01:19:53;17.10;99.90
41838;DHT22;27511;52.042;5.178;2023-05-08T01:28:17;16.90;99.90
41838;DHT22;27511;52.042;5.178;2023-05-08T01:33:12;16.90;99.90
41838;DHT22;27511;52.042;5.178;2023-05-08T01:35:44;16.80;99.90
41838;DHT22;27511;52.042;5.178;2023-05-08T01:40:52;16.90;99.90
41838;DHT22;27511;52.042;5.178;2023-05-08T01:43:23;16.90;99.90
41838;DHT22;27511;52.042;5.178;2023-05-08T01:45:50;16.80;99.90
41838;DHT22;27511;52.042;5.178;2023-05-08T01:48:41;16.90;99.90
41838;DHT22;27511;52.042;5.178;2023-05-08T01:51:06;16.80;99.90
41838;DHT22;27511;52.042;5.178;2023-05-08T01:53:42;16.80;99.90
41838;DHT22;27511;52.042;5.178;2023-05-08T01:56:09;16.80;99.90
41838;DHT22;27511;52.042;5.178;2023-05-08T01:58:36;16.80;99.90
41838;DHT22;27511;52.042;5.178;2023-05-08T02:01:02;16.80;99.90
41838;DHT22;27511;52.042;5.178;2023-05-08T02:03:29;16.70;99.90
41838;DHT22;27511;52.042;5.178;2023-05-08T02:05:56;16.60;99.90
41838;DHT22;27511;52.042;5.178;2023-05-08T02:08:23;16.50;99.90
41838;DHT22;27511;52.042;5.178;2023-05-08T02:10:49;16.50;99.90
41838;DHT22;27511;52.042;5.178;2023-05-08T02:13:16;16.50;99.90
41838;DHT22;27511;52.042;5.178;2023-05-08T02:15:44;16.60;99.90
41838;DHT22;27511;52.042;5.178;2023-05-08T02:18:11;16.70;99.90
41838;DHT22;27511;52.042;5.178;2023-05-08T02:20:38;16.80;99.90
41838;DHT22;27511;52.042;5.178;2023-05-08T02:23:04;16.70;99.90
41838;DHT22;27511;52.042;5.178;2023-05-08T02:25:30;16.50;99.90
41838;DHT22;27511;52.042;5.178;2023-05-08T02:27:56;16.50;99.90
41838;DHT22;27511;52.042;5.178;2023-05-08T02:30:23;16.40;99.90
41838;DHT22;27511;52.042;5.178;2023-05-08T02:32:49;16.30;99.90
41838;DHT22;27511;52.042;5.178;2023-05-08T02:35:16;16.40;99.90
41838;DHT22;27511;52.042;5.178;2023-05-08T02:37:43;16.40;99.90
41838;DHT22;27511;52.042;5.178;2023-05-08T02:40:09;16.30;99.90
41838;DHT22;27511;52.042;5.178;2023-05-08T02:42:35;16.30;99.90
41838;DHT22;27511;52.042;5.178;2023-05-08T02:45:01;16.20;99.90
41838;DHT22;27511;52.042;5.178;2023-05-08T02:47:29;16.20;99.90
41838;DHT22;27511;52.042;5.178;2023-05-08T02:57:52;16.20;99.90
41838;DHT22;27511;52.042;5.178;2023-05-08T03:00:21;16.10;99.90
41838;DHT22;27511;52.042;5.178;2023-05-08T03:03:00;16.10;99.90
41838;DHT22;27511;52.042;5.178;2023-05-08T03:05:29;16.20;99.90
41838;DHT22;27511;52.042;5.178;2023-05-08T03:07:56;16.20;99.90
41838;DHT22;27511;52.042;5.178;2023-05-08T03:10:24;16.00;99.90
41838;DHT22;27511;52.042;5.178;2023-05-08T03:12:52;16.10;99.90
41838;DHT22;27511;52.042;5.178;2023-05-08T03:17:57;16.20;99.90
41838;DHT22;27511;52.042;5.178;2023-05-08T03:20:25;16.00;99.90
41838;DHT22;27511;52.042;5.178;2023-05-08T03:22:52;16.00;99.90
41838;DHT22;27511;52.042;5.178;2023-05-08T03:25:19;16.10;99.90
41838;DHT22;27511;52.042;5.178;2023-05-08T03:27:45;16.00;99.90
41838;DHT22;27511;52.042;5.178;2023-05-08T03:30:11;16.10;99.90
41838;DHT22;27511;52.042;5.178;2023-05-08T03:32:37;16.00;99.90
41838;DHT22;27511;52.042;5.178;2023-05-08T03:35:03;15.90;99.90
41838;DHT22;27511;52.042;5.178;2023-05-08T03:37:29;16.00;99.90
41838;DHT22;27511;52.042;5.178;2023-05-08T03:39:55;15.90;99.90
41838;DHT22;27511;52.042;5.178;2023-05-08T03:42:22;15.90;99.90
41838;DHT22;27511;52.042;5.178;2023-05-08T03:44:50;15.90;99.90
41838;DHT22;27511;52.042;5.178;2023-05-08T03:47:17;15.90;99.90
41838;DHT22;27511;52.042;5.178;2023-05-08T03:49:43;16.00;99.90
41838;DHT22;27511;52.042;5.178;2023-05-08T03:52:10;15.90;99.90
41838;DHT22;27511;52.042;5.178;2023-05-08T03:54:35;15.70;99.90
41838;DHT22;27511;52.042;5.178;2023-05-08T03:57:01;15.70;99.90
41838;DHT22;27511;52.042;5.178;2023-05-08T04:01:59;15.80;99.90
41838;DHT22;27511;52.042;5.178;2023-05-08T04:07:14;15.80;99.90
41838;DHT22;27511;52.042;5.178;2023-05-08T04:09:48;15.80;99.90
41838;DHT22;27511;52.042;5.178;2023-05-08T04:12:19;15.90;99.90
41838;DHT22;27511;52.042;5.178;2023-05-08T04:14:55;15.90;99.90
41838;DHT22;27511;52.042;5.178;2023-05-08T04:17:41;15.90;99.90
41838;DHT22;27511;52.042;5.178;2023-05-08T04:20:07;15.90;99.90
41838;DHT22;27511;52.042;5.178;2023-05-08T04:22:34;15.90;99.90
41838;DHT22;27511;52.042;5.178;2023-05-08T04:25:02;16.00;99.90
41838;DHT22;27511;52.042;5.178;2023-05-08T04:27:30;16.00;99.90
41838;DHT22;27511;52.042;5.178;2023-05-08T04:29:55;16.00;99.90
41838;DHT22;27511;52.042;5.178;2023-05-08T04:32:21;16.10;99.90
41838;DHT22;27511;52.042;5.178;2023-05-08T04:34:48;16.00;99.90
41838;DHT22;27511;52.042;5.178;2023-05-08T04:37:21;16.10;99.90
41838;DHT22;27511;52.042;5.178;2023-05-08T04:39:49;16.10;99.90
41838;DHT22;27511;52.042;5.178;2023-05-08T04:42:14;16.20;99.90
41838;DHT22;27511;52.042;5.178;2023-05-08T04:44:40;16.30;99.90
41838;DHT22;27511;52.042;5.178;2023-05-08T04:47:05;16.10;99.90
41838;DHT22;27511;52.042;5.178;2023-05-08T04:49:31;16.20;99.90
41838;DHT22;27511;52.042;5.178;2023-05-08T04:51:56;16.20;99.90
41838;DHT22;27511;52.042;5.178;2023-05-08T04:54:22;16.20;99.90
41838;DHT22;27511;52.042;5.178;2023-05-08T04:56:47;16.30;99.90
41838;DHT22;27511;52.042;5.178;2023-05-08T04:59:13;16.20;99.90
41838;DHT22;27511;52.042;5.178;2023-05-08T05:01:38;16.20;99.90
41838;DHT22;27511;52.042;5.178;2023-05-08T05:04:04;16.20;99.90
41838;DHT22;27511;52.042;5.178;2023-05-08T05:06:29;16.40;99.90
41838;DHT22;27511;52.042;5.178;2023-05-08T05:08:55;16.50;99.90
41838;DHT22;27511;52.042;5.178;2023-05-08T05:11:21;16.40;99.90
41838;DHT22;27511;52.042;5.178;2023-05-08T05:13:47;16.40;99.90
41838;DHT22;27511;52.042;5.178;2023-05-08T05:16:12;16.50;99.90
41838;DHT22;27511;52.042;5.178;2023-05-08T05:18:38;16.70;99.90
41838;DHT22;27511;52.042;5.178;2023-05-08T05:21:03;16.60;99.90
41838;DHT22;27511;52.042;5.178;2023-05-08T05:23:28;16.60;99.90
41838;DHT22;27511;52.042;5.178;2023-05-08T05:25:54;16.60;99.90
41838;DHT22;27511;52.042;5.178;2023-05-08T05:28:20;16.70;99.90
41838;DHT22;27511;52.042;5.178;2023-05-08T05:30:46;16.60;99.90
41838;DHT22;27511;52.042;5.178;2023-05-08T05:33:11;16.70;99.90
41838;DHT22;27511;52.042;5.178;2023-05-08T05:35:37;16.70;99.90
41838;DHT22;27511;52.042;5.178;2023-05-08T05:38:02;16.70;99.90
41838;DHT22;27511;52.042;5.178;2023-05-08T05:40:28;16.70;99.90
41838;DHT22;27511;52.042;5.178;2023-05-08T05:42:53;16.80;99.90
41838;DHT22;27511;52.042;5.178;2023-05-08T05:45:18;16.80;99.90
41838;DHT22;27511;52.042;5.178;2023-05-08T05:47:44;16.80;99.90
41838;DHT22;27511;52.042;5.178;2023-05-08T05:50:14;16.90;99.90
41838;DHT22;27511;52.042;5.178;2023-05-08T05:52:40;16.90;99.90
41838;DHT22;27511;52.042;5.178;2023-05-08T05:55:05;16.90;99.90
41838;DHT22;27511;52.042;5.178;2023-05-08T05:57:31;17.00;99.90
41838;DHT22;27511;52.042;5.178;2023-05-08T05:59:57;17.10;99.90
41838;DHT22;27511;52.042;5.178;2023-05-08T06:02:24;17.20;99.90
41838;DHT22;27511;52.042;5.178;2023-05-08T06:04:52;17.10;99.90
41838;DHT22;27511;52.042;5.178;2023-05-08T06:07:18;17.00;99.90
41838;DHT22;27511;52.042;5.178;2023-05-08T06:09:45;17.00;99.90
41838;DHT22;27511;52.042;5.178;2023-05-08T06:12:11;17.10;99.90
41838;DHT22;27511;52.042;5.178;2023-05-08T06:14:36;17.20;99.90
41838;DHT22;27511;52.042;5.178;2023-05-08T06:17:01;17.30;99.90
41838;DHT22;27511;52.042;5.178;2023-05-08T06:19:27;17.30;99.90
41838;DHT22;27511;52.042;5.178;2023-05-08T06:21:53;17.40;99.90
41838;DHT22;27511;52.042;5.178;2023-05-08T06:24:18;17.30;99.90
41838;DHT22;27511;52.042;5.178;2023-05-08T06:26:43;17.40;99.90
41838;DHT22;27511;52.042;5.178;2023-05-08T06:29:09;17.50;99.90
41838;DHT22;27511;52.042;5.178;2023-05-08T06:31:35;17.40;99.90
41838;DHT22;27511;52.042;5.178;2023-05-08T06:34:00;17.40;99.90
41838;DHT22;27511;52.042;5.178;2023-05-08T06:36:26;17.60;99.90
41838;DHT22;27511;52.042;5.178;2023-05-08T06:38:51;17.70;99.90
41838;DHT22;27511;52.042;5.178;2023-05-08T06:41:17;17.80;99.90
41838;DHT22;27511;52.042;5.178;2023-05-08T06:43:42;17.80;99.90
41838;DHT22;27511;52.042;5.178;2023-05-08T06:46:08;18.00;99.90
41838;DHT22;27511;52.042;5.178;2023-05-08T06:48:33;18.00;99.90
41838;DHT22;27511;52.042;5.178;2023-05-08T06:50:58;18.00;99.90
41838;DHT22;27511;52.042;5.178;2023-05-08T06:53:24;18.10;99.90
41838;DHT22;27511;52.042;5.178;2023-05-08T06:55:50;18.10;99.90
41838;DHT22;27511;52.042;5.178;2023-05-08T06:58:15;18.10;99.90
41838;DHT22;27511;52.042;5.178;2023-05-08T07:00:41;18.10;99.90
41838;DHT22;27511;52.042;5.178;2023-05-08T07:03:07;18.10;99.90
41838;DHT22;27511;52.042;5.178;2023-05-08T07:05:32;18.00;99.90
41838;DHT22;27511;52.042;5.178;2023-05-08T07:07:58;17.90;99.90
41838;DHT22;27511;52.042;5.178;2023-05-08T07:10:23;18.00;99.90
41838;DHT22;27511;52.042;5.178;2023-05-08T07:12:48;18.10;99.90
41838;DHT22;27511;52.042;5.178;2023-05-08T07:15:14;18.30;99.90
41838;DHT22;27511;52.042;5.178;2023-05-08T07:17:40;18.20;99.90
41838;DHT22;27511;52.042;5.178;2023-05-08T07:20:06;18.30;99.90
41838;DHT22;27511;52.042;5.178;2023-05-08T07:22:32;18.50;99.90
41838;DHT22;27511;52.042;5.178;2023-05-08T07:24:57;18.60;99.90
41838;DHT22;27511;52.042;5.178;2023-05-08T07:27:23;18.60;99.90
41838;DHT22;27511;52.042;5.178;2023-05-08T07:29:48;18.50;99.90
41838;DHT22;27511;52.042;5.178;2023-05-08T07:32:13;18.70;99.90
41838;DHT22;27511;52.042;5.178;2023-05-08T07:34:39;18.80;99.90
41838;DHT22;27511;52.042;5.178;2023-05-08T07:37:06;18.80;99.90
41838;DHT22;27511;52.042;5.178;2023-05-08T07:39:31;18.70;99.90
41838;DHT22;27511;52.042;5.178;2023-05-08T07:41:57;18.90;99.90
41838;DHT22;27511;52.042;5.178;2023-05-08T07:44:22;18.70;99.90
41838;DHT22;27511;52.042;5.178;2023-05-08T07:46:47;18.80;99.90
41838;DHT22;27511;52.042;5.178;2023-05-08T07:49:13;18.80;99.90
41838;DHT22;27511;52.042;5.178;2023-05-08T07:51:39;19.00;99.90
41838;DHT22;27511;52.042;5.178;2023-05-08T07:54:04;19.10;99.90
41838;DHT22;27511;52.042;5.178;2023-05-08T07:56:30;19.10;99.90
41838;DHT22;27511;52.042;5.178;2023-05-08T07:58:55;19.10;99.90
41838;DHT22;27511;52.042;5.178;2023-05-08T08:01:21;19.10;99.90
41838;DHT22;27511;52.042;5.178;2023-05-08T08:03:46;19.20;99.90
41838;DHT22;27511;52.042;5.178;2023-05-08T08:06:12;19.30;99.90
41838;DHT22;27511;52.042;5.178;2023-05-08T08:08:37;19.30;99.90
41838;DHT22;27511;52.042;5.178;2023-05-08T08:11:03;19.30;99.90
41838;DHT22;27511;52.042;5.178;2023-05-08T08:13:29;19.30;99.90
41838;DHT22;27511;52.042;5.178;2023-05-08T08:15:55;19.40;99.90
41838;DHT22;27511;52.042;5.178;2023-05-08T08:18:21;19.20;99.90
41838;DHT22;27511;52.042;5.178;2023-05-08T08:20:46;19.30;99.90
41838;DHT22;27511;52.042;5.178;2023-05-08T08:23:12;19.20;99.90
41838;DHT22;27511;52.042;5.178;2023-05-08T08:25:37;19.30;99.90
41838;DHT22;27511;52.042;5.178;2023-05-08T08:28:03;19.40;99.90
41838;DHT22;27511;52.042;5.178;2023-05-08T08:30:29;19.20;99.90
41838;DHT22;27511;52.042;5.178;2023-05-08T08:32:54;19.30;99.90
41838;DHT22;27511;52.042;5.178;2023-05-08T08:35:20;19.60;99.90
41838;DHT22;27511;52.042;5.178;2023-05-08T08:37:45;19.40;99.90
41838;DHT22;27511;52.042;5.178;2023-05-08T08:40:11;19.30;99.90
41838;DHT22;27511;52.042;5.178;2023-05-08T08:42:36;19.60;99.90
41838;DHT22;27511;52.042;5.178;2023-05-08T08:45:02;19.80;99.90
41838;DHT22;27511;52.042;5.178;2023-05-08T08:47:28;19.90;99.90
41838;DHT22;27511;52.042;5.178;2023-05-08T08:49:54;19.90;99.90
41838;DHT22;27511;52.042;5.178;2023-05-08T08:55:06;20.00;99.90
41838;DHT22;27511;52.042;5.178;2023-05-08T08:57:33;20.00;99.90
41838;DHT22;27511;52.042;5.178;2023-05-08T09:00:01;19.90;99.90
41838;DHT22;27511;52.042;5.178;2023-05-08T09:02:28;19.70;99.90
41838;DHT22;27511;52.042;5.178;2023-05-08T09:04:55;19.80;99.90
41838;DHT22;27511;52.042;5.178;2023-05-08T09:07:21;19.80;99.90
41838;DHT22;27511;52.042;5.178;2023-05-08T09:09:47;19.90;99.90
41838;DHT22;27511;52.042;5.178;2023-05-08T09:12:13;20.10;99.90
41838;DHT22;27511;52.042;5.178;2023-05-08T09:14:39;20.30;99.90
41838;DHT22;27511;52.042;5.178;2023-05-08T09:17:04;20.40;99.90
41838;DHT22;27511;52.042;5.178;2023-05-08T09:19:30;20.20;99.90
41838;DHT22;27511;52.042;5.178;2023-05-08T09:21:58;20.20;99.90
41838;DHT22;27511;52.042;5.178;2023-05-08T09:24:23;20.30;99.90
41838;DHT22;27511;52.042;5.178;2023-05-08T09:26:49;20.40;99.90
41838;DHT22;27511;52.042;5.178;2023-05-08T09:29:15;20.20;99.90
41838;DHT22;27511;52.042;5.178;2023-05-08T09:31:42;20.20;99.90
41838;DHT22;27511;52.042;5.178;2023-05-08T09:34:08;20.20;99.90
41838;DHT22;27511;52.042;5.178;2023-05-08T09:36:34;20.30;99.90
41838;DHT22;27511;52.042;5.178;2023-05-08T09:39:01;20.20;99.90
41838;DHT22;27511;52.042;5.178;2023-05-08T09:41:26;20.30;99.90
41838;DHT22;27511;52.042;5.178;2023-05-08T09:43:59;20.50;99.90
41838;DHT22;27511;52.042;5.178;2023-05-08T09:46:25;20.30;99.90
41838;DHT22;27511;52.042;5.178;2023-05-08T09:48:52;20.50;99.90
41838;DHT22;27511;52.042;5.178;2023-05-08T09:51:17;20.30;99.90
41838;DHT22;27511;52.042;5.178;2023-05-08T09:53:43;20.20;99.90
41838;DHT22;27511;52.042;5.178;2023-05-08T09:56:09;20.30;99.90
41838;DHT22;27511;52.042;5.178;2023-05-08T09:58:38;20.40;99.90
41838;DHT22;27511;52.042;5.178;2023-05-08T10:01:04;20.40;99.90
41838;DHT22;27511;52.042;5.178;2023-05-08T10:03:44;20.40;99.90
41838;DHT22;27511;52.042;5.178;2023-05-08T10:06:11;20.40;99.90
41838;DHT22;27511;52.042;5.178;2023-05-08T10:08:36;20.40;99.90
41838;DHT22;27511;52.042;5.178;2023-05-08T10:11:11;20.40;99.90
41838;DHT22;27511;52.042;5.178;2023-05-08T10:13:37;20.50;99.90
41838;DHT22;27511;52.042;5.178;2023-05-08T10:16:03;20.70;99.90
41838;DHT22;27511;52.042;5.178;2023-05-08T10:18:28;20.80;99.90
41838;DHT22;27511;52.042;5.178;2023-05-08T10:20:54;20.90;99.90
41838;DHT22;27511;52.042;5.178;2023-05-08T10:23:20;21.00;99.90
41838;DHT22;27511;52.042;5.178;2023-05-08T10:25:46;21.10;99.90
41838;DHT22;27511;52.042;5.178;2023-05-08T10:30:41;21.20;99.90
41838;DHT22;27511;52.042;5.178;2023-05-08T10:33:08;21.20;99.90
41838;DHT22;27511;52.042;5.178;2023-05-08T10:35:33;21.20;99.90
41838;DHT22;27511;52.042;5.178;2023-05-08T10:38:00;21.10;99.90
41838;DHT22;27511;52.042;5.178;2023-05-08T10:40:26;21.00;99.90
41838;DHT22;27511;52.042;5.178;2023-05-08T10:42:52;20.80;99.90
41838;DHT22;27511;52.042;5.178;2023-05-08T10:45:17;20.80;99.90
41838;DHT22;27511;52.042;5.178;2023-05-08T10:48:02;20.70;99.90
41838;DHT22;27511;52.042;5.178;2023-05-08T10:55:29;20.50;99.90
41838;DHT22;27511;52.042;5.178;2023-05-08T11:01:09;20.70;99.90
41838;DHT22;27511;52.042;5.178;2023-05-08T11:03:18;20.90;99.90
41838;DHT22;27511;52.042;5.178;2023-05-08T11:05:44;21.20;99.90
41838;DHT22;27511;52.042;5.178;2023-05-08T11:08:14;21.30;99.90
41838;DHT22;27511;52.042;5.178;2023-05-08T11:10:41;21.30;99.90
41838;DHT22;27511;52.042;5.178;2023-05-08T11:13:08;21.40;99.90
41838;DHT22;27511;52.042;5.178;2023-05-08T11:15:35;21.30;99.90
41838;DHT22;27511;52.042;5.178;2023-05-08T11:18:05;21.60;99.90
41838;DHT22;27511;52.042;5.178;2023-05-08T11:20:37;21.50;99.90
41838;DHT22;27511;52.042;5.178;2023-05-08T11:23:20;21.50;99.90
41838;DHT22;27511;52.042;5.178;2023-05-08T11:25:45;21.50;99.90
41838;DHT22;27511;52.042;5.178;2023-05-08T11:28:11;21.70;99.90
41838;DHT22;27511;52.042;5.178;2023-05-08T11:30:38;21.90;99.90
41838;DHT22;27511;52.042;5.178;2023-05-08T11:38:10;22.20;99.90
41838;DHT22;27511;52.042;5.178;2023-05-08T11:45:55;22.20;99.90
41838;DHT22;27511;52.042;5.178;2023-05-08T11:48:23;22.40;99.90
41838;DHT22;27511;52.042;5.178;2023-05-08T11:50:49;22.50;99.90
41838;DHT22;27511;52.042;5.178;2023-05-08T11:53:15;22.50;99.90
41838;DHT22;27511;52.042;5.178;2023-05-08T11:55:40;22.60;99.90
41838;DHT22;27511;52.042;5.178;2023-05-08T11:58:13;22.80;99.90
41838;DHT22;27511;52.042;5.178;2023-05-08T12:00:39;22.90;99.90
41838;DHT22;27511;52.042;5.178;2023-05-08T12:03:05;22.80;99.90
41838;DHT22;27511;52.042;5.178;2023-05-08T12:05:31;22.80;99.90
41838;DHT22;27511;52.042;5.178;2023-05-08T12:07:57;22.70;99.90
41838;DHT22;27511;52.042;5.178;2023-05-08T12:10:23;22.70;99.90
41838;DHT22;27511;52.042;5.178;2023-05-08T12:12:49;22.70;99.90
41838;DHT22;27511;52.042;5.178;2023-05-08T12:15:15;22.50;99.90
41838;DHT22;27511;52.042;5.178;2023-05-08T12:17:41;22.50;99.90
41838;DHT22;27511;52.042;5.178;2023-05-08T12:22:37;22.40;99.90
41838;DHT22;27511;52.042;5.178;2023-05-08T12:25:03;22.50;99.90
41838;DHT22;27511;52.042;5.178;2023-05-08T12:27:29;22.60;99.90
41838;DHT22;27511;52.042;5.178;2023-05-08T12:29:55;22.30;99.90
41838;DHT22;27511;52.042;5.178;2023-05-08T12:32:21;22.20;99.90
41838;DHT22;27511;52.042;5.178;2023-05-08T12:34:47;22.10;99.90
41838;DHT22;27511;52.042;5.178;2023-05-08T12:37:21;22.20;99.90
41838;DHT22;27511;52.042;5.178;2023-05-08T12:39:47;22.30;99.90
41838;DHT22;27511;52.042;5.178;2023-05-08T12:42:12;22.60;99.90
41838;DHT22;27511;52.042;5.178;2023-05-08T12:44:38;22.50;99.90
41838;DHT22;27511;52.042;5.178;2023-05-08T12:47:03;22.60;99.90
41838;DHT22;27511;52.042;5.178;2023-05-08T12:49:29;22.70;99.90
41838;DHT22;27511;52.042;5.178;2023-05-08T12:52:02;23.20;99.90
41838;DHT22;27511;52.042;5.178;2023-05-08T12:54:38;23.40;99.90
41838;DHT22;27511;52.042;5.178;2023-05-08T12:57:07;23.30;99.90
41838;DHT22;27511;52.042;5.178;2023-05-08T12:59:34;23.70;99.90
41838;DHT22;27511;52.042;5.178;2023-05-08T13:01:59;24.10;99.90
41838;DHT22;27511;52.042;5.178;2023-05-08T13:04:25;23.90;99.90
41838;DHT22;27511;52.042;5.178;2023-05-08T13:06:56;23.80;99.90
41838;DHT22;27511;52.042;5.178;2023-05-08T13:09:22;23.70;99.90
41838;DHT22;27511;52.042;5.178;2023-05-08T13:11:48;23.70;99.90
41838;DHT22;27511;52.042;5.178;2023-05-08T13:14:13;23.60;99.90
41838;DHT22;27511;52.042;5.178;2023-05-08T13:16:42;23.50;99.90
41838;DHT22;27511;52.042;5.178;2023-05-08T13:19:08;23.40;99.90
41838;DHT22;27511;52.042;5.178;2023-05-08T13:21:33;23.40;99.90
41838;DHT22;27511;52.042;5.178;2023-05-08T13:23:59;23.50;99.90
41838;DHT22;27511;52.042;5.178;2023-05-08T13:26:25;23.50;99.90
41838;DHT22;27511;52.042;5.178;2023-05-08T13:28:51;23.20;99.90
41838;DHT22;27511;52.042;5.178;2023-05-08T13:31:18;23.10;99.90
41838;DHT22;27511;52.042;5.178;2023-05-08T13:33:43;23.20;99.90
41838;DHT22;27511;52.042;5.178;2023-05-08T13:36:09;23.60;99.90
41838;DHT22;27511;52.042;5.178;2023-05-08T13:38:34;23.90;99.90
41838;DHT22;27511;52.042;5.178;2023-05-08T13:41:00;24.10;99.90
41838;DHT22;27511;52.042;5.178;2023-05-08T13:43:25;24.40;99.90
41838;DHT22;27511;52.042;5.178;2023-05-08T13:45:51;24.30;99.90
41838;DHT22;27511;52.042;5.178;2023-05-08T13:48:16;24.20;99.90
41838;DHT22;27511;52.042;5.178;2023-05-08T13:50:42;24.20;99.90
41838;DHT22;27511;52.042;5.178;2023-05-08T13:53:07;24.10;99.90
41838;DHT22;27511;52.042;5.178;2023-05-08T13:55:33;24.00;99.90
41838;DHT22;27511;52.042;5.178;2023-05-08T13:57:58;24.00;99.90
41838;DHT22;27511;52.042;5.178;2023-05-08T14:00:24;24.00;99.90
41838;DHT22;27511;52.042;5.178;2023-05-08T14:02:49;23.70;99.90
41838;DHT22;27511;52.042;5.178;2023-05-08T14:05:15;23.70;99.90
41838;DHT22;27511;52.042;5.178;2023-05-08T14:07:40;23.50;99.90
41838;DHT22;27511;52.042;5.178;2023-05-08T14:10:06;23.50;99.90
41838;DHT22;27511;52.042;5.178;2023-05-08T14:12:32;23.50;99.90
41838;DHT22;27511;52.042;5.178;2023-05-08T14:15:00;23.60;99.90
41838;DHT22;27511;52.042;5.178;2023-05-08T14:17:26;23.70;99.90
41838;DHT22;27511;52.042;5.178;2023-05-08T14:19:51;23.90;99.90
41838;DHT22;27511;52.042;5.178;2023-05-08T14:22:17;24.10;99.90
41838;DHT22;27511;52.042;5.178;2023-05-08T14:24:42;24.20;99.90
41838;DHT22;27511;52.042;5.178;2023-05-08T14:27:08;24.10;99.90
41838;DHT22;27511;52.042;5.178;2023-05-08T14:29:34;24.20;99.90
41838;DHT22;27511;52.042;5.178;2023-05-08T14:31:59;24.20;99.90
41838;DHT22;27511;52.042;5.178;2023-05-08T14:34:25;24.20;99.90
41838;DHT22;27511;52.042;5.178;2023-05-08T14:36:51;24.20;99.90
41838;DHT22;27511;52.042;5.178;2023-05-08T14:39:16;24.20;99.90
41838;DHT22;27511;52.042;5.178;2023-05-08T14:41:41;24.20;99.90
41838;DHT22;27511;52.042;5.178;2023-05-08T14:44:07;24.10;99.90
41838;DHT22;27511;52.042;5.178;2023-05-08T14:46:32;23.90;99.90
41838;DHT22;27511;52.042;5.178;2023-05-08T14:48:58;23.60;99.90
41838;DHT22;27511;52.042;5.178;2023-05-08T14:51:23;23.50;99.90
41838;DHT22;27511;52.042;5.178;2023-05-08T14:53:49;23.40;99.90
41838;DHT22;27511;52.042;5.178;2023-05-08T14:56:14;23.50;99.90
41838;DHT22;27511;52.042;5.178;2023-05-08T14:58:40;23.60;99.90
41838;DHT22;27511;52.042;5.178;2023-05-08T15:01:05;23.60;99.90
41838;DHT22;27511;52.042;5.178;2023-05-08T15:03:31;23.60;99.90
41838;DHT22;27511;52.042;5.178;2023-05-08T15:05:56;23.50;99.90
41838;DHT22;27511;52.042;5.178;2023-05-08T15:08:22;23.50;99.90
41838;DHT22;27511;52.042;5.178;2023-05-08T15:10:47;23.40;99.90
41838;DHT22;27511;52.042;5.178;2023-05-08T15:13:13;23.20;99.90
41838;DHT22;27511;52.042;5.178;2023-05-08T15:15:38;23.10;99.90
41838;DHT22;27511;52.042;5.178;2023-05-08T15:18:04;23.10;99.90
41838;DHT22;27511;52.042;5.178;2023-05-08T15:20:29;23.20;99.90
41838;DHT22;27511;52.042;5.178;2023-05-08T15:22:55;23.40;99.90
41838;DHT22;27511;52.042;5.178;2023-05-08T15:25:20;23.50;99.90
41838;DHT22;27511;52.042;5.178;2023-05-08T15:27:46;23.60;99.90
41838;DHT22;27511;52.042;5.178;2023-05-08T15:30:17;23.60;99.90
41838;DHT22;27511;52.042;5.178;2023-05-08T15:32:42;23.70;99.90
41838;DHT22;27511;52.042;5.178;2023-05-08T15:35:08;23.70;99.90
41838;DHT22;27511;52.042;5.178;2023-05-08T15:37:33;23.60;99.90
41838;DHT22;27511;52.042;5.178;2023-05-08T15:40:01;23.40;99.90
41838;DHT22;27511;52.042;5.178;2023-05-08T15:42:26;23.30;99.90
41838;DHT22;27511;52.042;5.178;2023-05-08T15:44:55;23.10;99.90
41838;DHT22;27511;52.042;5.178;2023-05-08T15:47:21;23.20;99.90
41838;DHT22;27511;52.042;5.178;2023-05-08T15:49:47;23.10;99.90
41838;DHT22;27511;52.042;5.178;2023-05-08T15:52:12;23.00;99.90
41838;DHT22;27511;52.042;5.178;2023-05-08T15:54:43;23.00;99.90
41838;DHT22;27511;52.042;5.178;2023-05-08T15:57:08;22.80;99.90
41838;DHT22;27511;52.042;5.178;2023-05-08T15:59:34;22.60;99.90
41838;DHT22;27511;52.042;5.178;2023-05-08T16:02:02;22.50;99.90
41838;DHT22;27511;52.042;5.178;2023-05-08T16:04:27;22.40;99.90
41838;DHT22;27511;52.042;5.178;2023-05-08T16:06:53;22.30;99.90
41838;DHT22;27511;52.042;5.178;2023-05-08T16:09:20;22.50;99.90
41838;DHT22;27511;52.042;5.178;2023-05-08T16:11:45;22.40;99.90
41838;DHT22;27511;52.042;5.178;2023-05-08T16:14:12;22.30;99.90
41838;DHT22;27511;52.042;5.178;2023-05-08T16:16:38;22.30;99.90
41838;DHT22;27511;52.042;5.178;2023-05-08T16:19:03;22.10;99.90
41838;DHT22;27511;52.042;5.178;2023-05-08T16:21:29;21.80;99.90